createdAt,value
2023-03-03T00:01:21.352Z,432.15
2023-03-03T00:03:55.025Z,428.30
2023-03-03T00:06:29.588Z,407.13
2023-03-03T00:08:58.768Z,409.73
2023-03-03T00:11:29.509Z,480.58
2023-03-03T00:14:01.163Z,417.80
2023-03-03T00:16:37.036Z,349.88
2023-03-03T00:19:15.174Z,428.02
2023-03-03T00:21:46.233Z,400.17
2023-03-03T00:24:25.574Z,445.75
2023-03-03T00:26:56.145Z,448.80
2023-03-03T00:29:32.375Z,424.83
2023-03-03T00:32:21.214Z,464.33
2023-03-03T00:34:56.403Z,413.73
2023-03-03T00:37:35.717Z,495.13
2023-03-03T00:40:21.133Z,386.60
2023-03-03T00:42:52.811Z,395.67
2023-03-03T00:45:43.722Z,461.63
2023-03-03T00:48:29.018Z,396.75
2023-03-03T00:51:01.383Z,382.90
2023-03-03T00:53:38.651Z,423.20
2023-03-03T00:56:10.334Z,304.80
2023-03-03T00:58:38.886Z,534.05
2023-03-03T01:01:07.725Z,511.08
2023-03-03T01:03:41.595Z,485.73
2023-03-03T01:06:13.109Z,424.73
2023-03-03T01:08:46.005Z,492.85
2023-03-03T01:11:24.100Z,495.15
2023-03-03T01:13:57.274Z,495.05
2023-03-03T01:16:25.952Z,495.42
2023-03-03T01:18:54.347Z,468.83
2023-03-03T01:21:24.239Z,457.25
2023-03-03T01:23:52.793Z,506.73
2023-03-03T01:26:40.069Z,492.42
2023-03-03T01:29:15.061Z,471.83
2023-03-03T01:31:45.848Z,435.50
2023-03-03T01:34:17.698Z,538.38
2023-03-03T01:36:53.961Z,527.83
2023-03-03T01:39:26.205Z,461.20
2023-03-03T01:41:56.870Z,491.48
2023-03-03T01:44:25.452Z,453.83
2023-03-03T01:46:58.206Z,518.63
2023-03-03T01:49:29.967Z,478.10
2023-03-03T01:52:05.078Z,530.13
2023-03-03T01:54:40.720Z,413.73
2023-03-03T01:57:15.653Z,535.60
2023-03-03T01:59:51.508Z,342.60
2023-03-03T02:02:23.106Z,447.38
2023-03-03T02:04:53.835Z,411.60
2023-03-03T02:07:30.870Z,395.15
2023-03-03T02:10:03.290Z,487.80
2023-03-03T02:12:42.254Z,413.23
2023-03-03T02:15:20.084Z,426.65
2023-03-03T02:17:49.986Z,325.88
2023-03-03T02:20:27.393Z,435.98
2023-03-03T02:23:01.438Z,475.73
2023-03-03T02:25:38.622Z,467.48
2023-03-03T02:28:08.920Z,408.00
2023-03-03T02:30:40.054Z,257.67
2023-03-03T02:33:09.123Z,484.63
2023-03-03T02:35:39.944Z,499.02
2023-03-03T02:38:22.934Z,510.20
2023-03-03T02:41:01.158Z,498.52
2023-03-03T02:43:36.631Z,489.10
2023-03-03T02:46:05.307Z,345.85
2023-03-03T02:48:33.969Z,408.65
2023-03-03T02:51:02.898Z,396.38
2023-03-03T02:53:34.625Z,294.25
2023-03-03T02:56:05.760Z,557.60
2023-03-03T02:58:35.850Z,573.67
2023-03-03T03:01:04.838Z,457.70
2023-03-03T03:03:33.778Z,519.53
2023-03-03T03:06:02.531Z,514.67
2023-03-03T03:08:33.839Z,525.78
2023-03-03T03:11:02.447Z,513.65
2023-03-03T03:13:32.898Z,499.88
2023-03-03T03:16:03.001Z,421.05
2023-03-03T03:18:31.525Z,518.33
2023-03-03T03:21:06.484Z,424.58
2023-03-03T03:23:36.377Z,455.50
2023-03-03T03:26:05.625Z,384.05
2023-03-03T03:28:34.452Z,480.33
2023-03-03T03:31:05.170Z,472.13
2023-03-03T03:33:34.138Z,379.00
2023-03-03T03:36:04.103Z,464.40
2023-03-03T03:38:33.113Z,466.33
2023-03-03T03:41:02.082Z,413.65
2023-03-03T03:43:31.013Z,467.25
2023-03-03T03:46:01.706Z,488.20
2023-03-03T03:48:31.970Z,447.58
2023-03-03T03:51:00.580Z,288.83
2023-03-03T03:53:32.502Z,468.75
2023-03-03T03:56:01.578Z,504.08
2023-03-03T03:58:30.745Z,330.05
2023-03-03T04:01:04.408Z,334.50
2023-03-03T04:03:37.546Z,244.82
2023-03-03T04:06:12.752Z,420.30
2023-03-03T04:08:57.736Z,456.25
2023-03-03T04:14:01.149Z,353.00
2023-03-03T04:16:32.710Z,195.35
2023-03-03T04:19:21.247Z,384.77
2023-03-03T04:21:50.503Z,327.55
2023-03-03T04:24:20.006Z,309.70
2023-03-03T04:26:55.403Z,426.50
2023-03-03T04:29:28.804Z,309.27
2023-03-03T04:31:57.484Z,269.27
2023-03-03T04:34:27.714Z,471.20
2023-03-03T04:36:56.327Z,500.83
2023-03-03T04:39:25.012Z,481.00
2023-03-03T04:41:53.394Z,434.90
2023-03-03T04:44:22.302Z,400.98
2023-03-03T04:46:50.730Z,460.15
2023-03-03T04:49:19.191Z,301.20
2023-03-03T04:51:49.105Z,419.13
2023-03-03T04:54:17.604Z,434.50
2023-03-03T04:56:46.363Z,403.70
2023-03-03T04:59:15.451Z,289.38
2023-03-03T05:01:43.934Z,436.45
2023-03-03T05:04:12.409Z,400.08
2023-03-03T05:06:42.994Z,433.65
2023-03-03T05:09:13.153Z,267.58
2023-03-03T05:11:41.822Z,414.05
2023-03-03T05:14:10.466Z,448.02
2023-03-03T05:16:38.986Z,299.50
2023-03-03T05:19:07.765Z,402.00
2023-03-03T05:21:42.731Z,320.63
2023-03-03T05:24:18.600Z,420.13
2023-03-03T05:26:52.385Z,399.33
2023-03-03T05:29:23.909Z,435.10
2023-03-03T05:32:30.469Z,195.75
2023-03-03T05:35:02.761Z,170.77
2023-03-03T05:37:31.382Z,402.85
2023-03-03T05:40:01.130Z,366.38
2023-03-03T05:42:42.065Z,450.75
2023-03-03T05:45:11.678Z,330.30
2023-03-03T05:47:40.553Z,231.23
2023-03-03T05:50:10.395Z,385.52
2023-03-03T05:52:38.959Z,284.42
2023-03-03T05:55:09.859Z,302.23
2023-03-03T05:57:38.456Z,337.70
2023-03-03T06:00:15.362Z,341.83
2023-03-03T06:02:44.386Z,349.77
2023-03-03T06:05:12.956Z,145.10
2023-03-03T06:07:41.761Z,298.83
2023-03-03T06:10:12.684Z,270.90
2023-03-03T06:12:42.180Z,141.60
2023-03-03T06:15:11.634Z,364.88
2023-03-03T06:17:40.288Z,340.35
2023-03-03T06:20:10.189Z,474.63
2023-03-03T06:22:38.776Z,298.35
2023-03-03T06:25:07.709Z,219.30
2023-03-03T06:27:37.676Z,322.77
2023-03-03T06:30:07.916Z,262.77
2023-03-03T06:32:36.424Z,406.50
2023-03-03T06:35:05.150Z,341.23
2023-03-03T06:37:33.605Z,221.60
2023-03-03T06:40:02.142Z,418.90
2023-03-03T06:42:30.728Z,297.35
2023-03-03T06:45:00.556Z,385.92
2023-03-03T06:47:29.074Z,190.30
2023-03-03T06:49:57.496Z,170.45
2023-03-03T06:52:28.110Z,384.85
2023-03-03T06:54:58.643Z,310.83
2023-03-03T06:57:29.414Z,246.38
2023-03-03T07:00:01.630Z,288.60
2023-03-03T07:02:30.070Z,188.43
2023-03-03T07:04:58.953Z,365.77
2023-03-03T07:07:29.531Z,431.23
2023-03-03T07:09:58.840Z,459.92
2023-03-03T07:12:30.991Z,315.20
2023-03-03T07:15:14.460Z,192.75
2023-03-03T07:17:49.104Z,308.05
2023-03-03T07:20:22.884Z,338.38
2023-03-03T07:22:59.575Z,374.80
2023-03-03T07:25:33.266Z,167.90
2023-03-03T07:28:09.051Z,320.23
2023-03-03T07:30:39.228Z,305.67
2023-03-03T07:33:09.691Z,420.67
2023-03-03T07:35:39.841Z,345.92
2023-03-03T07:38:22.662Z,330.85
2023-03-03T07:40:52.896Z,434.33
2023-03-03T07:43:38.081Z,225.15
2023-03-03T07:46:29.168Z,272.25
2023-03-03T07:48:59.334Z,157.32
2023-03-03T07:51:29.392Z,387.95
2023-03-03T07:54:13.404Z,344.33
2023-03-03T07:56:42.163Z,377.95
2023-03-03T07:59:22.231Z,437.48
2023-03-03T08:01:55.289Z,367.40
2023-03-03T08:04:26.318Z,478.40
2023-03-03T08:06:57.404Z,375.88
2023-03-03T08:09:39.768Z,382.40
2023-03-03T08:12:41.888Z,387.08
2023-03-03T08:15:22.654Z,307.30
2023-03-03T08:17:54.074Z,344.05
2023-03-03T08:20:47.789Z,348.08
2023-03-03T08:23:17.609Z,485.92
2023-03-03T08:25:46.954Z,356.05
2023-03-03T08:28:15.720Z,322.05
2023-03-03T08:30:45.216Z,367.20
2023-03-03T08:33:15.867Z,333.65
2023-03-03T08:35:44.749Z,331.83
2023-03-03T08:38:14.172Z,301.50
2023-03-03T08:40:42.859Z,495.98
2023-03-03T08:43:14.517Z,302.95
2023-03-03T08:45:43.013Z,349.23
2023-03-03T08:48:11.472Z,304.85
2023-03-03T08:50:42.094Z,352.42
2023-03-03T08:53:11.232Z,346.60
2023-03-03T08:55:40.079Z,352.63
2023-03-03T08:58:08.850Z,326.75
2023-03-03T09:00:38.499Z,378.33
2023-03-03T09:03:08.257Z,452.90
2023-03-03T09:05:38.122Z,375.48
2023-03-03T09:08:09.089Z,412.75
2023-03-03T09:10:37.524Z,346.63
2023-03-03T09:13:11.669Z,447.17
2023-03-03T09:15:43.125Z,330.23
2023-03-03T09:18:18.016Z,377.85
2023-03-03T09:20:47.648Z,342.73
2023-03-03T09:23:34.765Z,491.63
2023-03-03T09:26:28.194Z,379.42
2023-03-03T09:28:57.721Z,475.90
2023-03-03T09:31:28.334Z,361.45
2023-03-03T09:33:59.348Z,261.73
2023-03-03T09:36:29.814Z,379.08
2023-03-03T09:39:00.168Z,342.02
2023-03-03T09:41:48.285Z,295.30
2023-03-03T09:44:49.699Z,345.27
2023-03-03T09:47:36.731Z,326.80
2023-03-03T09:50:14.092Z,287.42
2023-03-03T09:52:47.991Z,358.33
2023-03-03T09:55:27.910Z,433.77
2023-03-03T09:58:11.612Z,320.17
2023-03-03T10:00:52.068Z,288.48
2023-03-03T10:04:05.312Z,335.00
2023-03-03T10:06:36.803Z,305.55
2023-03-03T10:09:22.364Z,360.27
2023-03-03T10:11:55.556Z,296.50
2023-03-03T10:14:55.640Z,261.60
2023-03-03T10:17:32.626Z,308.92
2023-03-03T10:20:09.141Z,244.27
2023-03-03T10:22:44.007Z,234.00
2023-03-03T10:25:27.825Z,282.15
2023-03-03T10:28:12.397Z,386.52
2023-03-03T10:31:04.149Z,208.98
2023-03-03T10:33:41.251Z,260.13
2023-03-03T10:36:27.918Z,216.90
2023-03-03T10:39:11.246Z,200.68
2023-03-03T10:41:53.464Z,414.65
2023-03-03T10:44:37.424Z,196.45
2023-03-03T10:47:31.703Z,187.52
2023-03-03T10:50:09.042Z,321.50
2023-03-03T10:52:43.828Z,142.98
2023-03-03T10:55:26.427Z,130.73
2023-03-03T10:58:02.905Z,265.27
2023-03-03T11:00:36.247Z,233.30
2023-03-03T11:03:27.772Z,186.57
2023-03-03T11:05:59.190Z,203.20
2023-03-03T11:08:32.334Z,296.45
2023-03-03T11:11:09.059Z,246.18
2023-03-03T11:13:44.877Z,238.63
2023-03-03T11:16:34.637Z,241.50
2023-03-03T11:19:11.770Z,183.25
2023-03-03T11:21:46.510Z,172.00
2023-03-03T11:24:28.244Z,160.45
2023-03-03T11:27:18.229Z,213.35
2023-03-03T11:30:01.650Z,201.23
2023-03-03T11:32:39.492Z,179.13
2023-03-03T11:35:22.972Z,160.23
2023-03-03T11:38:08.960Z,116.80
2023-03-03T11:40:53.132Z,107.03
2023-03-03T11:43:36.218Z,105.10
2023-03-03T11:46:08.942Z,125.13
2023-03-03T11:48:44.991Z,124.32
2023-03-03T11:51:18.207Z,123.70
2023-03-03T11:53:59.535Z,188.90
2023-03-03T11:56:31.711Z,119.63
2023-03-03T11:59:16.860Z,168.30
2023-03-03T12:01:51.809Z,170.32
2023-03-03T12:04:33.236Z,128.95
2023-03-03T12:07:20.061Z,116.35
2023-03-03T12:09:55.505Z,137.13
2023-03-03T12:12:25.561Z,214.70
2023-03-03T12:15:10.920Z,329.52
2023-03-03T12:18:05.863Z,117.70
2023-03-03T12:20:50.606Z,182.82
2023-03-03T12:23:35.750Z,187.00
2023-03-03T12:26:07.147Z,220.55
2023-03-03T12:28:39.029Z,150.25
2023-03-03T12:31:19.380Z,134.60
2023-03-03T12:33:54.714Z,153.27
2023-03-03T12:36:44.569Z,183.50
2023-03-03T12:39:33.722Z,242.07
2023-03-03T12:42:09.962Z,194.65
2023-03-03T12:44:43.532Z,275.88
2023-03-03T12:47:23.308Z,227.68
2023-03-03T12:50:08.755Z,375.70
2023-03-03T12:53:02.865Z,256.65
2023-03-03T12:55:38.515Z,190.13
2023-03-03T13:00:59.358Z,165.63
2023-03-03T13:03:53.329Z,137.70
2023-03-03T13:06:37.760Z,251.15
2023-03-03T13:09:23.796Z,185.32
2023-03-03T13:12:01.915Z,201.13
2023-03-03T13:14:36.083Z,150.68
2023-03-03T13:17:14.003Z,138.10
2023-03-03T13:19:45.120Z,167.18
2023-03-03T13:22:18.015Z,141.05
2023-03-03T13:25:31.211Z,170.18
2023-03-03T13:28:07.052Z,165.77
2023-03-03T13:31:05.558Z,177.52
2023-03-03T13:33:36.327Z,166.27
2023-03-03T13:36:07.406Z,200.90
2023-03-03T13:38:38.302Z,238.13
2023-03-03T13:41:24.878Z,151.18
2023-03-03T13:44:02.124Z,189.98
2023-03-03T13:46:43.242Z,205.10
2023-03-03T13:49:47.847Z,196.95
2023-03-03T13:52:24.132Z,155.20
2023-03-03T13:55:13.329Z,136.15
2023-03-03T13:58:07.156Z,215.70
2023-03-03T14:00:54.716Z,138.50
2023-03-03T14:03:46.756Z,143.85
2023-03-03T14:06:19.165Z,155.32
2023-03-03T14:09:08.173Z,342.35
2023-03-03T14:11:47.199Z,144.63
2023-03-03T14:14:38.011Z,141.82
2023-03-03T14:17:17.094Z,138.00
2023-03-03T14:19:54.478Z,193.73
2023-03-03T14:22:28.755Z,197.02
2023-03-03T14:25:11.333Z,200.27
2023-03-03T14:27:46.956Z,158.23
2023-03-03T14:30:37.051Z,166.20
2023-03-03T14:33:27.213Z,147.77
2023-03-03T14:36:13.934Z,123.68
2023-03-03T14:38:49.442Z,109.43
2023-03-03T14:41:24.362Z,136.27
2023-03-03T14:47:11.631Z,133.95
2023-03-03T14:49:48.284Z,224.38
2023-03-03T14:52:25.475Z,213.88
2023-03-03T14:54:55.700Z,151.15
2023-03-03T14:57:41.748Z,192.93
2023-03-03T15:00:29.744Z,227.98
2023-03-03T15:03:21.835Z,166.65
2023-03-03T15:05:52.857Z,135.52
2023-03-03T15:08:29.752Z,159.23
2023-03-03T15:11:15.161Z,128.05
2023-03-03T15:13:43.738Z,172.95
2023-03-03T15:16:13.929Z,205.38
2023-03-03T15:19:19.369Z,126.30
2023-03-03T15:22:01.185Z,184.10
2023-03-03T15:24:36.254Z,262.48
2023-03-03T15:27:14.081Z,179.85
2023-03-03T15:30:01.324Z,192.88
2023-03-03T15:32:37.371Z,143.55
2023-03-03T15:35:25.591Z,123.80
2023-03-03T15:38:03.970Z,196.55
2023-03-03T15:40:39.306Z,131.43
2023-03-03T15:43:14.315Z,141.75
2023-03-03T15:45:48.341Z,130.63
2023-03-03T15:48:35.188Z,152.65
2023-03-03T15:51:10.269Z,184.80
2023-03-03T15:53:54.217Z,322.15
2023-03-03T15:56:30.884Z,253.35
2023-03-03T15:59:18.991Z,173.15
2023-03-03T16:01:53.803Z,168.93
2023-03-03T16:04:28.249Z,161.07
2023-03-03T16:07:01.992Z,219.13
2023-03-03T16:10:03.021Z,173.38
2023-03-03T16:12:36.189Z,213.85
2023-03-03T16:15:36.443Z,260.73
2023-03-03T16:18:11.757Z,207.60
2023-03-03T16:21:34.254Z,249.75
2023-03-03T16:24:14.056Z,208.48
2023-03-03T16:26:48.892Z,194.27
2023-03-03T16:29:28.385Z,182.65
2023-03-03T16:32:02.572Z,254.45
2023-03-03T16:34:36.440Z,248.00
2023-03-03T16:37:09.590Z,251.00
2023-03-03T16:39:48.210Z,238.32
2023-03-03T16:42:27.252Z,256.60
2023-03-03T16:45:16.381Z,296.15
2023-03-03T16:48:00.102Z,208.32
2023-03-03T16:50:32.069Z,213.13
2023-03-03T16:53:05.782Z,187.13
2023-03-03T16:55:38.053Z,409.97
2023-03-03T16:58:16.149Z,212.05
2023-03-03T17:00:52.292Z,217.77
2023-03-03T17:03:38.995Z,247.95
2023-03-03T17:06:14.130Z,248.68
2023-03-03T17:08:56.263Z,243.90
2023-03-03T17:11:31.768Z,305.92
2023-03-03T17:14:12.131Z,295.63
2023-03-03T17:16:52.629Z,271.17
2023-03-03T17:19:31.328Z,286.83
2023-03-03T17:22:10.045Z,449.73
2023-03-03T17:24:46.270Z,248.70
2023-03-03T17:27:23.057Z,326.58
2023-03-03T17:30:02.086Z,306.45
2023-03-03T17:32:50.974Z,457.73
2023-03-03T17:35:28.655Z,263.23
2023-03-03T17:38:03.961Z,240.30
2023-03-03T17:40:45.057Z,292.42
2023-03-03T17:43:17.683Z,279.23
2023-03-03T17:45:49.539Z,265.30
2023-03-03T17:48:41.827Z,339.67
2023-03-03T17:51:43.860Z,262.17
2023-03-03T17:54:20.576Z,240.77
2023-03-03T17:56:54.761Z,292.17
2023-03-03T17:59:43.134Z,214.68
2023-03-03T18:02:38.545Z,269.80
2023-03-03T18:07:51.411Z,356.33
2023-03-03T18:10:42.915Z,302.63
2023-03-03T18:13:28.447Z,344.35
2023-03-03T18:16:12.369Z,313.35
2023-03-03T18:18:58.270Z,222.00
2023-03-03T18:21:30.378Z,192.48
2023-03-03T18:24:30.291Z,296.10
2023-03-03T18:27:25.780Z,305.77
2023-03-03T18:30:16.399Z,372.73
2023-03-03T18:32:48.296Z,380.38
2023-03-03T18:35:25.654Z,308.60
2023-03-03T18:37:55.007Z,423.88
2023-03-03T18:40:37.042Z,355.38
2023-03-03T18:43:42.936Z,246.38
2023-03-03T18:46:13.577Z,251.98
2023-03-03T18:48:50.818Z,261.77
2023-03-03T18:51:52.069Z,346.42
2023-03-03T18:54:33.397Z,241.23
2023-03-03T18:57:16.761Z,390.85
2023-03-03T18:59:56.771Z,277.50
2023-03-03T19:02:36.298Z,301.27
2023-03-03T19:05:23.176Z,342.80
2023-03-03T19:07:58.774Z,311.20
2023-03-03T19:10:58.224Z,212.15
2023-03-03T19:13:49.881Z,199.68
2023-03-03T19:16:36.785Z,297.77
2023-03-03T19:19:16.854Z,348.90
2023-03-03T19:21:48.295Z,295.33
2023-03-03T19:24:38.697Z,286.75
2023-03-03T19:27:23.025Z,332.02
2023-03-03T19:30:22.660Z,278.33
2023-03-03T19:33:33.249Z,289.23
2023-03-03T19:36:12.182Z,293.10
2023-03-03T19:38:47.325Z,272.73
2023-03-03T19:41:28.542Z,272.80
2023-03-03T19:44:06.175Z,299.10
2023-03-03T19:46:55.080Z,350.35
2023-03-03T19:49:29.408Z,331.73
2023-03-03T19:52:03.255Z,276.35
2023-03-03T19:54:54.564Z,281.70
2023-03-03T19:57:36.709Z,325.02
2023-03-03T20:00:10.768Z,324.23
2023-03-03T20:02:49.935Z,289.15
2023-03-03T20:05:24.297Z,322.83
2023-03-03T20:07:59.153Z,376.88
2023-03-03T20:10:39.907Z,361.13
2023-03-03T20:13:18.195Z,329.08
2023-03-03T20:15:54.029Z,320.73
2023-03-03T20:18:49.417Z,335.77
2023-03-03T20:23:58.127Z,294.30
2023-03-03T20:26:30.897Z,319.42
2023-03-03T20:29:19.952Z,381.95
2023-03-03T20:31:54.188Z,307.77
2023-03-03T20:34:28.877Z,371.55
2023-03-03T20:39:39.985Z,320.23
2023-03-03T20:42:15.968Z,375.30
2023-03-03T20:45:01.628Z,316.83
2023-03-03T20:47:39.074Z,354.30
2023-03-03T20:50:16.469Z,320.98
2023-03-03T20:52:54.651Z,368.98
2023-03-03T20:55:28.810Z,341.40
2023-03-03T20:58:03.661Z,401.05
2023-03-03T21:00:36.958Z,380.00
2023-03-03T21:03:12.259Z,361.08
2023-03-03T21:05:57.504Z,412.10
2023-03-03T21:08:41.744Z,331.17
2023-03-03T21:11:10.409Z,431.83
2023-03-03T21:13:41.374Z,421.63
2023-03-03T21:16:14.218Z,417.02
2023-03-03T21:18:46.184Z,346.00
2023-03-03T21:21:14.844Z,387.83
2023-03-03T21:23:43.318Z,414.65
2023-03-03T21:26:11.827Z,370.73
2023-03-03T21:28:40.434Z,421.20
2023-03-03T21:31:15.423Z,397.35
2023-03-03T21:33:46.705Z,416.35
2023-03-03T21:36:16.891Z,430.05
2023-03-03T21:38:46.440Z,453.23
2023-03-03T21:41:15.941Z,415.50
2023-03-03T21:43:46.628Z,433.63
2023-03-03T21:46:20.179Z,398.95
2023-03-03T21:48:48.793Z,398.85
2023-03-03T21:51:17.448Z,417.25
2023-03-03T21:53:46.853Z,429.88
2023-03-03T21:56:15.500Z,349.20
2023-03-03T21:58:44.572Z,457.88
2023-03-03T22:01:13.047Z,395.48
2023-03-03T22:03:45.257Z,337.92
2023-03-03T22:06:13.665Z,394.60
2023-03-03T22:08:42.158Z,435.63
2023-03-03T22:11:10.690Z,404.17
2023-03-03T22:13:39.943Z,396.33
2023-03-03T22:16:09.095Z,547.83
2023-03-03T22:18:37.514Z,395.23
2023-03-03T22:21:07.422Z,380.65
2023-03-03T22:23:35.932Z,399.92
2023-03-03T22:26:04.423Z,409.67
2023-03-03T22:28:32.946Z,438.30
2023-03-03T22:31:01.476Z,420.70
2023-03-03T22:33:30.114Z,439.15
2023-03-03T22:35:58.576Z,446.52
2023-03-03T22:38:28.456Z,427.25
2023-03-03T22:40:56.903Z,392.80
2023-03-03T22:43:25.878Z,473.30
2023-03-03T22:45:54.374Z,523.63
2023-03-03T22:48:24.381Z,423.30
2023-03-03T22:50:53.531Z,427.75
2023-03-03T22:53:22.559Z,414.88
2023-03-03T22:55:52.578Z,393.63
2023-03-03T22:58:21.331Z,480.27
2023-03-03T23:00:50.241Z,389.90
2023-03-03T23:03:20.877Z,539.45
2023-03-03T23:05:51.785Z,489.30
2023-03-03T23:08:21.248Z,446.98
2023-03-03T23:10:51.077Z,461.30
2023-03-03T23:13:19.632Z,467.15
2023-03-03T23:15:48.189Z,498.77
2023-03-03T23:18:16.700Z,411.75
2023-03-03T23:20:46.043Z,464.35
2023-03-03T23:23:14.736Z,441.83
2023-03-03T23:25:43.317Z,474.58
2023-03-03T23:28:15.443Z,466.10
2023-03-03T23:30:44.408Z,459.42
2023-03-03T23:33:12.883Z,490.73
2023-03-03T23:35:41.409Z,516.80
2023-03-03T23:38:15.242Z,472.65
2023-03-03T23:40:44.099Z,526.00
2023-03-03T23:43:14.152Z,442.55
2023-03-03T23:45:42.863Z,431.08
2023-03-03T23:48:11.491Z,428.40
2023-03-03T23:50:40.250Z,477.73
2023-03-03T23:53:12.275Z,488.25
2023-03-03T23:55:40.766Z,481.38
2023-03-03T23:58:09.718Z,507.73
